ESMT/HAD METAR and TAF weather

Enter ICAO airport designator
Station Type Date Time Source
ESMT METAR 2019/04/25 21:50 UTC NOAA

ESMT 252150Z AUTO VRB01KT 9999 NCD 11/09 Q1014


Station Type Date Time Source
ESMT Decoded METAR 2019/04/25 21:50 UTC NOAA

Halmstad Swedish Air Force Base , Sweden (ESMT) 56-41N 012-50E
Apr 25, 2019 - 05:50 PM EDT / 2019.04.25 2150 UTC
Wind: Variable at 1 MPH (1 KT):0
Visibility: greater than 7 mile(s):0
Temperature: 51 F (11 C)
Dew Point: 48 F (9 C)
Relative Humidity: 87%
Pressure (altimeter): 29.94 in. Hg (1014 hPa)
ob: ESMT 252150Z AUTO VRB01KT 9999 NCD 11/09 Q1014
cycle: 22

Station Type Date Time Source
ESMT TAF 2017/04/24 06:33 UTC NOAA

TAF TAF ESMT 240513Z 2406/2506 22018KT 9999 BKN018
TEMPO 2406/2413 22018G30KT 4000 RADZ BKN008
TEMPO 2413/2415 24020G30KT 4000 SHRA BKN014 SCT020CB

Example: see airport list